Durango International Airport
MMDO : now visible

Airfield :











YOU CAN JOIN US ON...

 
LOGIN :

Register | Disclaimer

   EN    FR    IT 

 









Legend :    VFR   Marginal VFR   IFR   Intensive IFR   Very Intensive IFR
Visi :
Ceiling :
>= 8 km
>= 3000ft
5 to 8 km
1000 to 3000 ft
1500m to 5 km
500 to 1000 ft
800 to 1500m
200 to 500 ft
< 800m
< 200 ft
Symbols :   Thunderstorms  Fog  Heavy snow  Heavy precipitations  Wind > 20 kt






- Airport Elevation : 6104 ft
- IATA code : DGO


MMDO - Durango International

CURRENT METAR :
  • 112145Z 33002KT 12SM BKN200 19/00 A3026 RMK 8/008

EXPIRED METARs :
  • 112045Z 05003KT 12SM FEW200 18/00 A3028 RMK SLP170 57033 940 8/004
  • 111944Z 33004KT 12SM FEW200 16/01 A3031 RMK 8/004

TAF TAF MMDO
Valid from the 11 at 18:00 until the 12 at 18:00 UTC


111633Z 1118/1218 15012KT P6SM SKC
BECMG 1202/1203 00000KT
FM121600 26010KT P6SM SKC



MET'MAP, your aeronautical weather chart ! - Copyright ORBIFLY December 2007 - Disclaimer

ORBIFLY MET'MAP TEAM :

Programming & Development : Alexandra Zaïnal
Concept & original design : Baudouin d'Aumeries
Assistance for programming : Marc-Olivier Méhu
Technical & hardware support : Manuel Goepfert

Contact : metmap@orbifly.com




SOURCES & CREDITS :

   NOAA       Earth
Advisory